sensor_id;sensor_type;location;lat;lon;timestamp;P1;durP1;ratioP1;P2;durP2;ratioP2
54261;SDS011;40174;52.364;6.452;2023-11-21T00:01:44;26.85;;;7.72;;
54261;SDS011;40174;52.364;6.452;2023-11-21T00:04:10;23.27;;;7.57;;
54261;SDS011;40174;52.364;6.452;2023-11-21T00:06:38;20.15;;;7.22;;
54261;SDS011;40174;52.364;6.452;2023-11-21T00:09:06;21.38;;;7.47;;
54261;SDS011;40174;52.364;6.452;2023-11-21T00:11:33;23.90;;;7.70;;
54261;SDS011;40174;52.364;6.452;2023-11-21T00:14:00;23.27;;;7.75;;
54261;SDS011;40174;52.364;6.452;2023-11-21T00:16:27;23.23;;;7.18;;
54261;SDS011;40174;52.364;6.452;2023-11-21T00:18:53;27.40;;;6.18;;
54261;SDS011;40174;52.364;6.452;2023-11-21T00:21:20;20.75;;;7.90;;
54261;SDS011;40174;52.364;6.452;2023-11-21T00:23:48;19.85;;;6.60;;
54261;SDS011;40174;52.364;6.452;2023-11-21T00:26:15;17.65;;;6.05;;
54261;SDS011;40174;52.364;6.452;2023-11-21T00:28:46;26.63;;;8.13;;
54261;SDS011;40174;52.364;6.452;2023-11-21T00:31:13;21.23;;;7.28;;
54261;SDS011;40174;52.364;6.452;2023-11-21T00:33:39;24.85;;;7.70;;
54261;SDS011;40174;52.364;6.452;2023-11-21T00:36:06;22.05;;;6.85;;
54261;SDS011;40174;52.364;6.452;2023-11-21T00:38:35;28.65;;;7.25;;
54261;SDS011;40174;52.364;6.452;2023-11-21T00:41:03;18.88;;;7.30;;
54261;SDS011;40174;52.364;6.452;2023-11-21T00:43:30;23.33;;;7.05;;
54261;SDS011;40174;52.364;6.452;2023-11-21T00:45:58;21.15;;;7.15;;
54261;SDS011;40174;52.364;6.452;2023-11-21T00:48:33;26.30;;;6.80;;
54261;SDS011;40174;52.364;6.452;2023-11-21T00:53:26;19.33;;;6.80;;
54261;SDS011;40174;52.364;6.452;2023-11-21T00:55:53;23.48;;;7.75;;
54261;SDS011;40174;52.364;6.452;2023-11-21T00:58:23;22.80;;;7.53;;
54261;SDS011;40174;52.364;6.452;2023-11-21T01:00:51;24.02;;;7.47;;
54261;SDS011;40174;52.364;6.452;2023-11-21T01:03:17;19.42;;;6.03;;
54261;SDS011;40174;52.364;6.452;2023-11-21T01:05:44;24.08;;;8.32;;
54261;SDS011;40174;52.364;6.452;2023-11-21T01:08:11;26.52;;;8.13;;
54261;SDS011;40174;52.364;6.452;2023-11-21T01:10:38;19.90;;;7.07;;
54261;SDS011;40174;52.364;6.452;2023-11-21T01:13:04;22.77;;;7.78;;
54261;SDS011;40174;52.364;6.452;2023-11-21T01:15:33;23.55;;;6.75;;
54261;SDS011;40174;52.364;6.452;2023-11-21T01:18:00;22.30;;;6.70;;
54261;SDS011;40174;52.364;6.452;2023-11-21T01:20:28;24.00;;;7.65;;
54261;SDS011;40174;52.364;6.452;2023-11-21T01:22:55;20.15;;;7.35;;
54261;SDS011;40174;52.364;6.452;2023-11-21T01:25:22;15.30;;;7.00;;
54261;SDS011;40174;52.364;6.452;2023-11-21T01:27:48;22.75;;;6.30;;
54261;SDS011;40174;52.364;6.452;2023-11-21T01:30:15;23.40;;;7.45;;
54261;SDS011;40174;52.364;6.452;2023-11-21T01:32:43;19.48;;;6.75;;
54261;SDS011;40174;52.364;6.452;2023-11-21T01:35:10;23.83;;;7.28;;
54261;SDS011;40174;52.364;6.452;2023-11-21T01:37:36;19.67;;;7.63;;
54261;SDS011;40174;52.364;6.452;2023-11-21T01:40:03;23.95;;;7.38;;
54261;SDS011;40174;52.364;6.452;2023-11-21T01:42:35;15.90;;;5.57;;
54261;SDS011;40174;52.364;6.452;2023-11-21T01:45:01;15.38;;;6.57;;
54261;SDS011;40174;52.364;6.452;2023-11-21T01:47:30;18.00;;;6.35;;
54261;SDS011;40174;52.364;6.452;2023-11-21T01:49:58;19.73;;;6.35;;
54261;SDS011;40174;52.364;6.452;2023-11-21T01:52:27;18.45;;;6.05;;
54261;SDS011;40174;52.364;6.452;2023-11-21T01:54:54;23.80;;;6.80;;
54261;SDS011;40174;52.364;6.452;2023-11-21T01:57:21;20.10;;;6.75;;
54261;SDS011;40174;52.364;6.452;2023-11-21T01:59:48;21.60;;;6.47;;
54261;SDS011;40174;52.364;6.452;2023-11-21T02:02:15;20.25;;;6.35;;
54261;SDS011;40174;52.364;6.452;2023-11-21T02:04:42;16.88;;;5.55;;
54261;SDS011;40174;52.364;6.452;2023-11-21T02:07:10;14.77;;;6.10;;
54261;SDS011;40174;52.364;6.452;2023-11-21T02:09:37;22.85;;;6.90;;
54261;SDS011;40174;52.364;6.452;2023-11-21T02:12:08;15.30;;;6.68;;
54261;SDS011;40174;52.364;6.452;2023-11-21T02:14:35;16.40;;;6.03;;
54261;SDS011;40174;52.364;6.452;2023-11-21T02:17:02;17.35;;;6.18;;
54261;SDS011;40174;52.364;6.452;2023-11-21T02:19:30;21.38;;;6.53;;
54261;SDS011;40174;52.364;6.452;2023-11-21T02:21:57;16.80;;;5.30;;
54261;SDS011;40174;52.364;6.452;2023-11-21T02:24:32;18.05;;;6.70;;
54261;SDS011;40174;52.364;6.452;2023-11-21T02:26:59;16.65;;;5.50;;
54261;SDS011;40174;52.364;6.452;2023-11-21T02:29:26;13.73;;;4.93;;
54261;SDS011;40174;52.364;6.452;2023-11-21T02:31:54;23.52;;;6.45;;
54261;SDS011;40174;52.364;6.452;2023-11-21T02:34:21;22.08;;;6.80;;
54261;SDS011;40174;52.364;6.452;2023-11-21T02:36:50;20.67;;;5.85;;
54261;SDS011;40174;52.364;6.452;2023-11-21T02:39:16;19.08;;;5.63;;
54261;SDS011;40174;52.364;6.452;2023-11-21T02:41:48;16.55;;;6.28;;
54261;SDS011;40174;52.364;6.452;2023-11-21T02:44:15;14.93;;;5.53;;
54261;SDS011;40174;52.364;6.452;2023-11-21T02:46:41;18.75;;;5.82;;
54261;SDS011;40174;52.364;6.452;2023-11-21T02:49:07;21.23;;;6.70;;
54261;SDS011;40174;52.364;6.452;2023-11-21T02:51:35;18.48;;;6.38;;
54261;SDS011;40174;52.364;6.452;2023-11-21T02:54:03;21.02;;;7.85;;
54261;SDS011;40174;52.364;6.452;2023-11-21T02:56:33;19.33;;;4.95;;
54261;SDS011;40174;52.364;6.452;2023-11-21T02:59:01;20.77;;;6.68;;
54261;SDS011;40174;52.364;6.452;2023-11-21T03:01:28;17.85;;;5.68;;
54261;SDS011;40174;52.364;6.452;2023-11-21T03:03:55;19.00;;;7.13;;
54261;SDS011;40174;52.364;6.452;2023-11-21T03:06:22;23.33;;;6.88;;
54261;SDS011;40174;52.364;6.452;2023-11-21T03:08:48;14.85;;;5.38;;
54261;SDS011;40174;52.364;6.452;2023-11-21T03:11:16;21.35;;;6.93;;
54261;SDS011;40174;52.364;6.452;2023-11-21T03:13:44;17.98;;;6.38;;
54261;SDS011;40174;52.364;6.452;2023-11-21T03:16:12;16.70;;;5.97;;
54261;SDS011;40174;52.364;6.452;2023-11-21T03:18:39;25.50;;;7.38;;
54261;SDS011;40174;52.364;6.452;2023-11-21T03:21:06;20.00;;;5.82;;
54261;SDS011;40174;52.364;6.452;2023-11-21T03:23:34;27.42;;;6.53;;
54261;SDS011;40174;52.364;6.452;2023-11-21T03:26:02;17.77;;;5.80;;
54261;SDS011;40174;52.364;6.452;2023-11-21T03:28:29;23.60;;;6.68;;
54261;SDS011;40174;52.364;6.452;2023-11-21T03:30:56;19.05;;;6.07;;
54261;SDS011;40174;52.364;6.452;2023-11-21T03:33:24;20.92;;;7.43;;
54261;SDS011;40174;52.364;6.452;2023-11-21T03:35:51;18.83;;;6.28;;
54261;SDS011;40174;52.364;6.452;2023-11-21T03:38:18;19.85;;;6.15;;
54261;SDS011;40174;52.364;6.452;2023-11-21T03:40:45;19.92;;;5.53;;
54261;SDS011;40174;52.364;6.452;2023-11-21T03:43:12;15.85;;;5.75;;
54261;SDS011;40174;52.364;6.452;2023-11-21T03:45:39;16.27;;;5.70;;
54261;SDS011;40174;52.364;6.452;2023-11-21T03:48:06;20.00;;;6.28;;
54261;SDS011;40174;52.364;6.452;2023-11-21T03:50:38;18.55;;;6.38;;
54261;SDS011;40174;52.364;6.452;2023-11-21T03:53:05;14.73;;;4.75;;
54261;SDS011;40174;52.364;6.452;2023-11-21T03:55:32;21.83;;;6.13;;
54261;SDS011;40174;52.364;6.452;2023-11-21T03:57:59;11.88;;;4.78;;
54261;SDS011;40174;52.364;6.452;2023-11-21T04:00:25;15.40;;;5.82;;
54261;SDS011;40174;52.364;6.452;2023-11-21T04:02:53;15.05;;;5.18;;
54261;SDS011;40174;52.364;6.452;2023-11-21T04:05:20;16.95;;;5.93;;
54261;SDS011;40174;52.364;6.452;2023-11-21T04:07:49;19.70;;;4.75;;
54261;SDS011;40174;52.364;6.452;2023-11-21T04:10:16;18.77;;;6.00;;
54261;SDS011;40174;52.364;6.452;2023-11-21T04:12:43;16.33;;;4.88;;
54261;SDS011;40174;52.364;6.452;2023-11-21T04:15:10;17.70;;;4.90;;
54261;SDS011;40174;52.364;6.452;2023-11-21T04:17:38;19.08;;;5.35;;
54261;SDS011;40174;52.364;6.452;2023-11-21T04:20:05;32.33;;;6.43;;
54261;SDS011;40174;52.364;6.452;2023-11-21T04:22:36;14.05;;;5.35;;
54261;SDS011;40174;52.364;6.452;2023-11-21T04:25:05;23.67;;;6.07;;
54261;SDS011;40174;52.364;6.452;2023-11-21T04:27:32;13.30;;;4.63;;
54261;SDS011;40174;52.364;6.452;2023-11-21T04:29:59;17.98;;;6.20;;
54261;SDS011;40174;52.364;6.452;2023-11-21T04:32:26;14.88;;;5.38;;
54261;SDS011;40174;52.364;6.452;2023-11-21T04:34:53;20.25;;;5.40;;
54261;SDS011;40174;52.364;6.452;2023-11-21T04:37:19;19.60;;;5.38;;
54261;SDS011;40174;52.364;6.452;2023-11-21T04:39:46;18.42;;;5.53;;
54261;SDS011;40174;52.364;6.452;2023-11-21T04:42:14;18.25;;;5.60;;
54261;SDS011;40174;52.364;6.452;2023-11-21T04:44:41;22.85;;;5.80;;
54261;SDS011;40174;52.364;6.452;2023-11-21T04:47:09;17.45;;;5.28;;
54261;SDS011;40174;52.364;6.452;2023-11-21T04:49:35;17.10;;;5.28;;
54261;SDS011;40174;52.364;6.452;2023-11-21T04:52:02;18.05;;;5.18;;
54261;SDS011;40174;52.364;6.452;2023-11-21T04:54:30;15.80;;;5.65;;
54261;SDS011;40174;52.364;6.452;2023-11-21T04:56:57;14.20;;;5.80;;
54261;SDS011;40174;52.364;6.452;2023-11-21T04:59:25;18.27;;;6.07;;
54261;SDS011;40174;52.364;6.452;2023-11-21T05:01:52;20.00;;;6.53;;
54261;SDS011;40174;52.364;6.452;2023-11-21T05:04:19;14.43;;;5.57;;
54261;SDS011;40174;52.364;6.452;2023-11-21T05:06:47;17.75;;;5.68;;
54261;SDS011;40174;52.364;6.452;2023-11-21T05:09:14;23.80;;;6.72;;
54261;SDS011;40174;52.364;6.452;2023-11-21T05:11:41;15.20;;;6.38;;
54261;SDS011;40174;52.364;6.452;2023-11-21T05:14:07;15.18;;;5.78;;
54261;SDS011;40174;52.364;6.452;2023-11-21T05:16:36;18.08;;;5.53;;
54261;SDS011;40174;52.364;6.452;2023-11-21T05:19:03;16.73;;;6.32;;
54261;SDS011;40174;52.364;6.452;2023-11-21T05:21:30;19.08;;;6.47;;
54261;SDS011;40174;52.364;6.452;2023-11-21T05:23:57;15.85;;;6.13;;
54261;SDS011;40174;52.364;6.452;2023-11-21T05:26:24;16.05;;;5.63;;
54261;SDS011;40174;52.364;6.452;2023-11-21T05:28:51;21.50;;;6.60;;
54261;SDS011;40174;52.364;6.452;2023-11-21T05:31:17;21.13;;;6.53;;
54261;SDS011;40174;52.364;6.452;2023-11-21T05:33:45;17.25;;;5.57;;
54261;SDS011;40174;52.364;6.452;2023-11-21T05:36:12;20.00;;;6.90;;
54261;SDS011;40174;52.364;6.452;2023-11-21T05:38:39;16.30;;;5.60;;
54261;SDS011;40174;52.364;6.452;2023-11-21T05:41:06;17.98;;;5.47;;
54261;SDS011;40174;52.364;6.452;2023-11-21T05:43:33;21.30;;;7.38;;
54261;SDS011;40174;52.364;6.452;2023-11-21T05:46:01;18.75;;;6.53;;
54261;SDS011;40174;52.364;6.452;2023-11-21T05:48:27;22.48;;;6.72;;
54261;SDS011;40174;52.364;6.452;2023-11-21T05:50:55;17.15;;;6.03;;
54261;SDS011;40174;52.364;6.452;2023-11-21T05:53:22;18.17;;;6.60;;
54261;SDS011;40174;52.364;6.452;2023-11-21T05:55:48;20.65;;;6.20;;
54261;SDS011;40174;52.364;6.452;2023-11-21T05:58:15;19.13;;;6.00;;
54261;SDS011;40174;52.364;6.452;2023-11-21T06:00:42;18.33;;;5.50;;
54261;SDS011;40174;52.364;6.452;2023-11-21T06:03:08;19.63;;;6.75;;
54261;SDS011;40174;52.364;6.452;2023-11-21T06:05:35;15.00;;;5.82;;
54261;SDS011;40174;52.364;6.452;2023-11-21T06:08:03;17.85;;;6.22;;
54261;SDS011;40174;52.364;6.452;2023-11-21T06:10:31;19.52;;;6.18;;
54261;SDS011;40174;52.364;6.452;2023-11-21T06:12:58;20.30;;;7.85;;
54261;SDS011;40174;52.364;6.452;2023-11-21T06:15:25;21.90;;;7.50;;
54261;SDS011;40174;52.364;6.452;2023-11-21T06:17:51;27.05;;;8.05;;
54261;SDS011;40174;52.364;6.452;2023-11-21T06:20:18;21.20;;;8.05;;
54261;SDS011;40174;52.364;6.452;2023-11-21T06:22:46;24.23;;;6.63;;
54261;SDS011;40174;52.364;6.452;2023-11-21T06:25:15;15.38;;;5.95;;
54261;SDS011;40174;52.364;6.452;2023-11-21T06:27:43;15.73;;;6.38;;
54261;SDS011;40174;52.364;6.452;2023-11-21T06:30:11;18.40;;;6.72;;
54261;SDS011;40174;52.364;6.452;2023-11-21T06:32:39;26.00;;;7.97;;
54261;SDS011;40174;52.364;6.452;2023-11-21T06:35:06;21.02;;;6.53;;
54261;SDS011;40174;52.364;6.452;2023-11-21T06:37:35;18.60;;;6.30;;
54261;SDS011;40174;52.364;6.452;2023-11-21T06:40:01;23.08;;;7.97;;
54261;SDS011;40174;52.364;6.452;2023-11-21T06:42:31;21.25;;;6.97;;
54261;SDS011;40174;52.364;6.452;2023-11-21T06:44:58;21.30;;;7.63;;
54261;SDS011;40174;52.364;6.452;2023-11-21T06:47:29;23.50;;;7.38;;
54261;SDS011;40174;52.364;6.452;2023-11-21T06:49:55;29.75;;;7.88;;
54261;SDS011;40174;52.364;6.452;2023-11-21T06:52:22;18.02;;;6.63;;
54261;SDS011;40174;52.364;6.452;2023-11-21T06:54:49;23.08;;;7.20;;
54261;SDS011;40174;52.364;6.452;2023-11-21T06:57:15;22.65;;;7.43;;
54261;SDS011;40174;52.364;6.452;2023-11-21T06:59:43;22.23;;;7.05;;
54261;SDS011;40174;52.364;6.452;2023-11-21T07:02:10;24.30;;;6.40;;
54261;SDS011;40174;52.364;6.452;2023-11-21T07:04:37;19.33;;;7.03;;
54261;SDS011;40174;52.364;6.452;2023-11-21T07:07:04;23.00;;;8.00;;
54261;SDS011;40174;52.364;6.452;2023-11-21T07:09:32;19.02;;;6.88;;
54261;SDS011;40174;52.364;6.452;2023-11-21T07:11:59;19.63;;;6.97;;
54261;SDS011;40174;52.364;6.452;2023-11-21T07:14:26;19.60;;;7.50;;
54261;SDS011;40174;52.364;6.452;2023-11-21T07:16:54;23.90;;;8.38;;
54261;SDS011;40174;52.364;6.452;2023-11-21T07:19:21;18.50;;;7.60;;
54261;SDS011;40174;52.364;6.452;2023-11-21T07:21:48;24.55;;;8.18;;
54261;SDS011;40174;52.364;6.452;2023-11-21T07:24:16;19.50;;;8.25;;
54261;SDS011;40174;52.364;6.452;2023-11-21T07:26:43;19.58;;;7.75;;
54261;SDS011;40174;52.364;6.452;2023-11-21T07:29:09;23.10;;;7.22;;
54261;SDS011;40174;52.364;6.452;2023-11-21T07:31:36;19.65;;;7.00;;
54261;SDS011;40174;52.364;6.452;2023-11-21T07:34:04;24.70;;;7.72;;
54261;SDS011;40174;52.364;6.452;2023-11-21T07:36:31;24.52;;;6.65;;
54261;SDS011;40174;52.364;6.452;2023-11-21T07:38:58;26.75;;;6.22;;
54261;SDS011;40174;52.364;6.452;2023-11-21T07:41:26;20.63;;;6.80;;
54261;SDS011;40174;52.364;6.452;2023-11-21T07:43:54;18.80;;;6.90;;
54261;SDS011;40174;52.364;6.452;2023-11-21T07:46:21;20.98;;;7.50;;
54261;SDS011;40174;52.364;6.452;2023-11-21T07:48:49;16.35;;;5.95;;
54261;SDS011;40174;52.364;6.452;2023-11-21T07:51:18;19.80;;;7.85;;
54261;SDS011;40174;52.364;6.452;2023-11-21T07:53:45;26.15;;;7.30;;
54261;SDS011;40174;52.364;6.452;2023-11-21T07:56:12;22.63;;;6.85;;
54261;SDS011;40174;52.364;6.452;2023-11-21T07:58:39;21.88;;;7.05;;
54261;SDS011;40174;52.364;6.452;2023-11-21T08:01:05;25.10;;;7.88;;
54261;SDS011;40174;52.364;6.452;2023-11-21T08:03:33;21.92;;;7.95;;
54261;SDS011;40174;52.364;6.452;2023-11-21T08:05:59;19.55;;;6.90;;
54261;SDS011;40174;52.364;6.452;2023-11-21T08:08:29;24.70;;;7.35;;
54261;SDS011;40174;52.364;6.452;2023-11-21T08:10:57;23.73;;;7.13;;
54261;SDS011;40174;52.364;6.452;2023-11-21T08:13:26;23.83;;;7.90;;
54261;SDS011;40174;52.364;6.452;2023-11-21T08:15:54;23.35;;;7.60;;
54261;SDS011;40174;52.364;6.452;2023-11-21T08:18:21;21.50;;;6.63;;
54261;SDS011;40174;52.364;6.452;2023-11-21T08:20:48;25.00;;;8.48;;
54261;SDS011;40174;52.364;6.452;2023-11-21T08:23:15;19.05;;;8.18;;
54261;SDS011;40174;52.364;6.452;2023-11-21T08:25:44;26.63;;;6.97;;
54261;SDS011;40174;52.364;6.452;2023-11-21T08:28:11;28.40;;;9.45;;
54261;SDS011;40174;52.364;6.452;2023-11-21T08:30:39;28.40;;;7.88;;
54261;SDS011;40174;52.364;6.452;2023-11-21T08:33:06;24.08;;;7.32;;
54261;SDS011;40174;52.364;6.452;2023-11-21T08:35:33;19.50;;;8.18;;
54261;SDS011;40174;52.364;6.452;2023-11-21T08:38:01;26.92;;;8.43;;
54261;SDS011;40174;52.364;6.452;2023-11-21T08:40:28;22.10;;;8.38;;
54261;SDS011;40174;52.364;6.452;2023-11-21T08:42:56;22.30;;;8.10;;
54261;SDS011;40174;52.364;6.452;2023-11-21T08:45:24;27.80;;;8.43;;
54261;SDS011;40174;52.364;6.452;2023-11-21T08:47:51;28.75;;;8.95;;
54261;SDS011;40174;52.364;6.452;2023-11-21T08:50:17;23.15;;;7.65;;
54261;SDS011;40174;52.364;6.452;2023-11-21T08:52:44;20.95;;;8.52;;
54261;SDS011;40174;52.364;6.452;2023-11-21T08:55:12;30.25;;;7.40;;
54261;SDS011;40174;52.364;6.452;2023-11-21T08:57:39;26.70;;;8.05;;
54261;SDS011;40174;52.364;6.452;2023-11-21T09:00:08;22.98;;;7.88;;
54261;SDS011;40174;52.364;6.452;2023-11-21T09:02:37;19.55;;;8.23;;
54261;SDS011;40174;52.364;6.452;2023-11-21T09:05:04;23.95;;;8.35;;
54261;SDS011;40174;52.364;6.452;2023-11-21T09:07:32;27.10;;;8.98;;
54261;SDS011;40174;52.364;6.452;2023-11-21T09:09:58;20.48;;;7.75;;
54261;SDS011;40174;52.364;6.452;2023-11-21T09:12:26;26.38;;;7.65;;
54261;SDS011;40174;52.364;6.452;2023-11-21T09:14:53;28.42;;;9.50;;
54261;SDS011;40174;52.364;6.452;2023-11-21T09:17:21;26.38;;;9.52;;
54261;SDS011;40174;52.364;6.452;2023-11-21T09:19:47;24.20;;;8.88;;
54261;SDS011;40174;52.364;6.452;2023-11-21T09:22:16;25.63;;;7.95;;
54261;SDS011;40174;52.364;6.452;2023-11-21T09:24:43;20.83;;;7.28;;
54261;SDS011;40174;52.364;6.452;2023-11-21T09:27:10;27.05;;;9.20;;
54261;SDS011;40174;52.364;6.452;2023-11-21T09:29:36;19.50;;;7.65;;
54261;SDS011;40174;52.364;6.452;2023-11-21T09:32:04;19.52;;;6.95;;
54261;SDS011;40174;52.364;6.452;2023-11-21T09:34:33;19.23;;;7.63;;
54261;SDS011;40174;52.364;6.452;2023-11-21T09:37:01;25.05;;;8.82;;
54261;SDS011;40174;52.364;6.452;2023-11-21T09:39:30;21.67;;;7.60;;
54261;SDS011;40174;52.364;6.452;2023-11-21T09:41:59;20.27;;;7.43;;
54261;SDS011;40174;52.364;6.452;2023-11-21T09:44:36;25.08;;;7.90;;
54261;SDS011;40174;52.364;6.452;2023-11-21T09:47:14;22.63;;;9.02;;
54261;SDS011;40174;52.364;6.452;2023-11-21T09:49:43;21.88;;;7.88;;
54261;SDS011;40174;52.364;6.452;2023-11-21T09:52:17;17.77;;;6.25;;
54261;SDS011;40174;52.364;6.452;2023-11-21T09:54:50;21.13;;;6.53;;
54261;SDS011;40174;52.364;6.452;2023-11-21T09:57:19;21.83;;;6.80;;
54261;SDS011;40174;52.364;6.452;2023-11-21T09:59:46;16.65;;;6.15;;
54261;SDS011;40174;52.364;6.452;2023-11-21T10:02:15;18.05;;;6.57;;
54261;SDS011;40174;52.364;6.452;2023-11-21T10:04:45;26.67;;;7.57;;
54261;SDS011;40174;52.364;6.452;2023-11-21T10:07:13;18.35;;;5.93;;
54261;SDS011;40174;52.364;6.452;2023-11-21T10:09:42;15.02;;;5.88;;
54261;SDS011;40174;52.364;6.452;2023-11-21T10:12:10;15.48;;;5.55;;
54261;SDS011;40174;52.364;6.452;2023-11-21T10:14:40;16.08;;;5.90;;
54261;SDS011;40174;52.364;6.452;2023-11-21T10:17:09;16.10;;;5.80;;
54261;SDS011;40174;52.364;6.452;2023-11-21T10:19:39;18.92;;;7.00;;
54261;SDS011;40174;52.364;6.452;2023-11-21T10:22:08;23.02;;;6.05;;
54261;SDS011;40174;52.364;6.452;2023-11-21T10:24:35;16.90;;;6.72;;
54261;SDS011;40174;52.364;6.452;2023-11-21T10:27:02;16.90;;;6.30;;
54261;SDS011;40174;52.364;6.452;2023-11-21T10:29:29;15.13;;;6.30;;
54261;SDS011;40174;52.364;6.452;2023-11-21T10:32:01;20.42;;;6.68;;
54261;SDS011;40174;52.364;6.452;2023-11-21T10:34:28;19.98;;;6.03;;
54261;SDS011;40174;52.364;6.452;2023-11-21T10:36:55;15.27;;;5.97;;
54261;SDS011;40174;52.364;6.452;2023-11-21T10:39:24;19.27;;;7.60;;
54261;SDS011;40174;52.364;6.452;2023-11-21T10:41:56;20.55;;;6.07;;
54261;SDS011;40174;52.364;6.452;2023-11-21T10:44:22;19.27;;;6.25;;
54261;SDS011;40174;52.364;6.452;2023-11-21T10:46:50;16.80;;;6.95;;
54261;SDS011;40174;52.364;6.452;2023-11-21T10:49:21;24.05;;;6.68;;
54261;SDS011;40174;52.364;6.452;2023-11-21T10:51:49;15.77;;;6.07;;
54261;SDS011;40174;52.364;6.452;2023-11-21T10:54:18;15.65;;;5.75;;
54261;SDS011;40174;52.364;6.452;2023-11-21T10:56:47;16.90;;;5.78;;
54261;SDS011;40174;52.364;6.452;2023-11-21T10:59:16;19.65;;;6.28;;
54261;SDS011;40174;52.364;6.452;2023-11-21T11:01:46;16.85;;;7.20;;
54261;SDS011;40174;52.364;6.452;2023-11-21T11:04:15;20.42;;;6.35;;
54261;SDS011;40174;52.364;6.452;2023-11-21T11:06:44;18.27;;;6.65;;
54261;SDS011;40174;52.364;6.452;2023-11-21T11:09:13;19.92;;;4.75;;
54261;SDS011;40174;52.364;6.452;2023-11-21T11:11:41;16.10;;;6.15;;
54261;SDS011;40174;52.364;6.452;2023-11-21T11:14:11;14.30;;;5.30;;
54261;SDS011;40174;52.364;6.452;2023-11-21T11:16:39;15.60;;;5.38;;
54261;SDS011;40174;52.364;6.452;2023-11-21T11:19:08;14.50;;;5.38;;
54261;SDS011;40174;52.364;6.452;2023-11-21T11:21:38;18.45;;;6.40;;
54261;SDS011;40174;52.364;6.452;2023-11-21T11:24:18;17.75;;;5.85;;
54261;SDS011;40174;52.364;6.452;2023-11-21T11:27:01;15.38;;;5.18;;
54261;SDS011;40174;52.364;6.452;2023-11-21T11:29:41;13.45;;;5.72;;
54261;SDS011;40174;52.364;6.452;2023-11-21T11:32:17;20.52;;;5.72;;
54261;SDS011;40174;52.364;6.452;2023-11-21T11:34:56;17.00;;;6.57;;
54261;SDS011;40174;52.364;6.452;2023-11-21T11:37:27;12.15;;;4.63;;
54261;SDS011;40174;52.364;6.452;2023-11-21T11:39:54;19.65;;;5.03;;
54261;SDS011;40174;52.364;6.452;2023-11-21T11:42:22;16.00;;;5.40;;
54261;SDS011;40174;52.364;6.452;2023-11-21T11:44:51;17.05;;;5.65;;
54261;SDS011;40174;52.364;6.452;2023-11-21T11:47:20;19.98;;;5.65;;
54261;SDS011;40174;52.364;6.452;2023-11-21T11:49:56;19.10;;;5.15;;
54261;SDS011;40174;52.364;6.452;2023-11-21T11:52:38;19.52;;;6.72;;
54261;SDS011;40174;52.364;6.452;2023-11-21T11:55:06;20.33;;;6.50;;
54261;SDS011;40174;52.364;6.452;2023-11-21T11:57:36;23.65;;;7.47;;
54261;SDS011;40174;52.364;6.452;2023-11-21T12:00:08;21.42;;;5.88;;
54261;SDS011;40174;52.364;6.452;2023-11-21T12:02:44;19.85;;;6.07;;
54261;SDS011;40174;52.364;6.452;2023-11-21T12:05:13;19.23;;;5.88;;
54261;SDS011;40174;52.364;6.452;2023-11-21T12:07:44;16.17;;;6.13;;
54261;SDS011;40174;52.364;6.452;2023-11-21T12:10:14;15.02;;;4.25;;
54261;SDS011;40174;52.364;6.452;2023-11-21T12:12:43;16.10;;;4.93;;
54261;SDS011;40174;52.364;6.452;2023-11-21T12:15:13;16.75;;;5.45;;
54261;SDS011;40174;52.364;6.452;2023-11-21T12:17:41;15.10;;;5.07;;
54261;SDS011;40174;52.364;6.452;2023-11-21T12:20:09;15.60;;;5.28;;
54261;SDS011;40174;52.364;6.452;2023-11-21T12:22:44;15.90;;;5.28;;
54261;SDS011;40174;52.364;6.452;2023-11-21T12:25:13;16.88;;;5.38;;
54261;SDS011;40174;52.364;6.452;2023-11-21T12:27:44;14.27;;;4.45;;
54261;SDS011;40174;52.364;6.452;2023-11-21T12:30:13;14.82;;;5.15;;
54261;SDS011;40174;52.364;6.452;2023-11-21T12:32:41;11.00;;;4.13;;
54261;SDS011;40174;52.364;6.452;2023-11-21T12:35:08;9.85;;;3.67;;
54261;SDS011;40174;52.364;6.452;2023-11-21T12:37:36;13.88;;;4.13;;
54261;SDS011;40174;52.364;6.452;2023-11-21T12:40:04;12.73;;;4.80;;
54261;SDS011;40174;52.364;6.452;2023-11-21T12:42:33;14.55;;;4.70;;
54261;SDS011;40174;52.364;6.452;2023-11-21T12:45:10;15.50;;;4.63;;
54261;SDS011;40174;52.364;6.452;2023-11-21T12:47:46;16.30;;;4.47;;
54261;SDS011;40174;52.364;6.452;2023-11-21T12:50:14;14.32;;;5.30;;
54261;SDS011;40174;52.364;6.452;2023-11-21T12:52:44;14.35;;;4.80;;
54261;SDS011;40174;52.364;6.452;2023-11-21T12:55:13;16.20;;;5.68;;
54261;SDS011;40174;52.364;6.452;2023-11-21T12:57:44;17.45;;;5.85;;
54261;SDS011;40174;52.364;6.452;2023-11-21T13:00:12;18.98;;;7.22;;
54261;SDS011;40174;52.364;6.452;2023-11-21T13:02:53;16.77;;;6.38;;
54261;SDS011;40174;52.364;6.452;2023-11-21T13:05:26;19.48;;;7.03;;
54261;SDS011;40174;52.364;6.452;2023-11-21T13:07:54;15.00;;;5.82;;
54261;SDS011;40174;52.364;6.452;2023-11-21T13:10:23;14.70;;;5.93;;
54261;SDS011;40174;52.364;6.452;2023-11-21T13:12:54;12.60;;;5.57;;
54261;SDS011;40174;52.364;6.452;2023-11-21T13:15:23;14.38;;;6.13;;
54261;SDS011;40174;52.364;6.452;2023-11-21T13:17:50;11.70;;;4.97;;
54261;SDS011;40174;52.364;6.452;2023-11-21T13:20:20;11.73;;;4.35;;
54261;SDS011;40174;52.364;6.452;2023-11-21T13:22:47;13.20;;;4.43;;
54261;SDS011;40174;52.364;6.452;2023-11-21T13:25:14;10.93;;;5.30;;
54261;SDS011;40174;52.364;6.452;2023-11-21T13:27:43;9.50;;;4.55;;
54261;SDS011;40174;52.364;6.452;2023-11-21T13:30:11;8.93;;;4.20;;
54261;SDS011;40174;52.364;6.452;2023-11-21T13:32:40;9.88;;;4.03;;
54261;SDS011;40174;52.364;6.452;2023-11-21T13:35:07;11.07;;;4.07;;
54261;SDS011;40174;52.364;6.452;2023-11-21T13:37:41;9.95;;;3.92;;
54261;SDS011;40174;52.364;6.452;2023-11-21T13:40:10;10.90;;;4.18;;
54261;SDS011;40174;52.364;6.452;2023-11-21T13:42:40;10.02;;;3.65;;
54261;SDS011;40174;52.364;6.452;2023-11-21T13:45:08;9.13;;;3.45;;
54261;SDS011;40174;52.364;6.452;2023-11-21T13:47:35;11.05;;;4.43;;
54261;SDS011;40174;52.364;6.452;2023-11-21T13:50:03;9.88;;;4.97;;
54261;SDS011;40174;52.364;6.452;2023-11-21T13:52:43;9.85;;;4.47;;
54261;SDS011;40174;52.364;6.452;2023-11-21T13:55:10;12.60;;;3.25;;
54261;SDS011;40174;52.364;6.452;2023-11-21T13:57:40;10.55;;;4.07;;
54261;SDS011;40174;52.364;6.452;2023-11-21T14:00:08;10.32;;;4.28;;
54261;SDS011;40174;52.364;6.452;2023-11-21T14:02:57;6.80;;;3.20;;
54261;SDS011;40174;52.364;6.452;2023-11-21T14:05:25;12.98;;;4.32;;
54261;SDS011;40174;52.364;6.452;2023-11-21T14:07:56;9.13;;;3.88;;
54261;SDS011;40174;52.364;6.452;2023-11-21T14:10:28;8.70;;;3.67;;
54261;SDS011;40174;52.364;6.452;2023-11-21T14:13:02;7.15;;;3.22;;
54261;SDS011;40174;52.364;6.452;2023-11-21T14:15:30;8.40;;;3.63;;
54261;SDS011;40174;52.364;6.452;2023-11-21T14:17:58;8.48;;;3.60;;
54261;SDS011;40174;52.364;6.452;2023-11-21T14:20:27;9.25;;;3.60;;
54261;SDS011;40174;52.364;6.452;2023-11-21T14:22:56;6.97;;;2.97;;
54261;SDS011;40174;52.364;6.452;2023-11-21T14:25:23;10.00;;;3.60;;
54261;SDS011;40174;52.364;6.452;2023-11-21T14:27:52;7.90;;;3.50;;
54261;SDS011;40174;52.364;6.452;2023-11-21T14:30:18;9.85;;;3.78;;
54261;SDS011;40174;52.364;6.452;2023-11-21T14:32:47;10.77;;;3.47;;
54261;SDS011;40174;52.364;6.452;2023-11-21T14:35:14;7.88;;;2.90;;
54261;SDS011;40174;52.364;6.452;2023-11-21T14:37:41;7.75;;;2.95;;
54261;SDS011;40174;52.364;6.452;2023-11-21T14:40:10;7.20;;;3.03;;
54261;SDS011;40174;52.364;6.452;2023-11-21T14:42:41;8.90;;;3.50;;
54261;SDS011;40174;52.364;6.452;2023-11-21T14:45:09;8.20;;;3.47;;